sensor_id;sensor_type;location;lat;lon;timestamp;P1;durP1;ratioP1;P2;durP2;ratioP2
24439;SDS011;12618;54.386;18.394;2023-05-31T00:01:36;9.70;;;5.10;;
24439;SDS011;12618;54.386;18.394;2023-05-31T00:04:11;9.60;;;4.80;;
24439;SDS011;12618;54.386;18.394;2023-05-31T00:06:43;7.60;;;4.50;;
24439;SDS011;12618;54.386;18.394;2023-05-31T00:09:16;8.20;;;4.40;;
24439;SDS011;12618;54.386;18.394;2023-05-31T00:11:47;8.80;;;4.50;;
24439;SDS011;12618;54.386;18.394;2023-05-31T00:14:19;7.30;;;4.50;;
24439;SDS011;12618;54.386;18.394;2023-05-31T00:16:51;9.10;;;4.50;;
24439;SDS011;12618;54.386;18.394;2023-05-31T00:19:43;7.90;;;4.20;;
24439;SDS011;12618;54.386;18.394;2023-05-31T00:22:15;6.10;;;3.90;;
24439;SDS011;12618;54.386;18.394;2023-05-31T00:24:48;11.50;;;4.80;;
24439;SDS011;12618;54.386;18.394;2023-05-31T00:27:20;7.30;;;4.20;;
24439;SDS011;12618;54.386;18.394;2023-05-31T00:29:54;8.80;;;4.10;;
24439;SDS011;12618;54.386;18.394;2023-05-31T00:32:26;7.10;;;4.30;;
24439;SDS011;12618;54.386;18.394;2023-05-31T00:34:57;7.10;;;4.50;;
24439;SDS011;12618;54.386;18.394;2023-05-31T00:37:29;9.20;;;4.40;;
24439;SDS011;12618;54.386;18.394;2023-05-31T00:40:04;6.80;;;4.20;;
24439;SDS011;12618;54.386;18.394;2023-05-31T00:42:37;7.30;;;4.90;;
24439;SDS011;12618;54.386;18.394;2023-05-31T00:45:09;7.70;;;4.20;;
24439;SDS011;12618;54.386;18.394;2023-05-31T00:47:42;6.80;;;4.30;;
24439;SDS011;12618;54.386;18.394;2023-05-31T00:50:15;8.40;;;4.80;;
24439;SDS011;12618;54.386;18.394;2023-05-31T00:52:47;6.60;;;4.50;;
24439;SDS011;12618;54.386;18.394;2023-05-31T00:55:23;6.20;;;4.10;;
24439;SDS011;12618;54.386;18.394;2023-05-31T00:57:55;7.00;;;4.70;;
24439;SDS011;12618;54.386;18.394;2023-05-31T01:00:29;7.60;;;4.60;;
24439;SDS011;12618;54.386;18.394;2023-05-31T01:03:02;7.60;;;5.20;;
24439;SDS011;12618;54.386;18.394;2023-05-31T01:05:34;7.50;;;5.50;;
24439;SDS011;12618;54.386;18.394;2023-05-31T01:08:06;7.80;;;5.30;;
24439;SDS011;12618;54.386;18.394;2023-05-31T01:10:38;6.70;;;5.00;;
24439;SDS011;12618;54.386;18.394;2023-05-31T01:13:17;7.90;;;5.40;;
24439;SDS011;12618;54.386;18.394;2023-05-31T01:18:41;8.10;;;5.00;;
24439;SDS011;12618;54.386;18.394;2023-05-31T01:21:16;26.60;;;5.40;;
24439;SDS011;12618;54.386;18.394;2023-05-31T01:24:12;27.70;;;5.50;;
24439;SDS011;12618;54.386;18.394;2023-05-31T01:26:54;20.10;;;5.10;;
24439;SDS011;12618;54.386;18.394;2023-05-31T01:29:30;38.00;;;5.40;;
24439;SDS011;12618;54.386;18.394;2023-05-31T01:32:01;20.60;;;4.50;;
24439;SDS011;12618;54.386;18.394;2023-05-31T01:34:35;40.10;;;4.90;;
24439;SDS011;12618;54.386;18.394;2023-05-31T01:37:07;56.80;;;5.50;;
24439;SDS011;12618;54.386;18.394;2023-05-31T01:39:39;22.50;;;4.90;;
24439;SDS011;12618;54.386;18.394;2023-05-31T01:42:11;17.10;;;4.80;;
24439;SDS011;12618;54.386;18.394;2023-05-31T01:44:43;8.40;;;4.80;;
24439;SDS011;12618;54.386;18.394;2023-05-31T01:47:16;9.70;;;4.80;;
24439;SDS011;12618;54.386;18.394;2023-05-31T01:49:49;6.40;;;4.60;;
24439;SDS011;12618;54.386;18.394;2023-05-31T01:52:22;7.80;;;4.60;;
24439;SDS011;12618;54.386;18.394;2023-05-31T01:54:54;7.00;;;4.40;;
24439;SDS011;12618;54.386;18.394;2023-05-31T01:57:26;5.90;;;4.20;;
24439;SDS011;12618;54.386;18.394;2023-05-31T02:00:00;5.00;;;4.20;;
24439;SDS011;12618;54.386;18.394;2023-05-31T02:02:36;5.60;;;4.40;;
24439;SDS011;12618;54.386;18.394;2023-05-31T02:05:12;5.90;;;4.70;;
24439;SDS011;12618;54.386;18.394;2023-05-31T02:07:44;6.10;;;4.50;;
24439;SDS011;12618;54.386;18.394;2023-05-31T02:10:20;6.80;;;4.90;;
24439;SDS011;12618;54.386;18.394;2023-05-31T02:12:51;5.80;;;4.40;;
24439;SDS011;12618;54.386;18.394;2023-05-31T02:15:26;9.90;;;5.40;;
24439;SDS011;12618;54.386;18.394;2023-05-31T02:17:57;7.70;;;5.10;;
24439;SDS011;12618;54.386;18.394;2023-05-31T02:20:30;9.30;;;5.60;;
24439;SDS011;12618;54.386;18.394;2023-05-31T02:23:02;9.40;;;5.50;;
24439;SDS011;12618;54.386;18.394;2023-05-31T02:25:33;9.60;;;5.20;;
24439;SDS011;12618;54.386;18.394;2023-05-31T02:28:05;11.00;;;5.00;;
24439;SDS011;12618;54.386;18.394;2023-05-31T02:30:37;11.50;;;5.50;;
24439;SDS011;12618;54.386;18.394;2023-05-31T02:33:09;9.30;;;4.60;;
24439;SDS011;12618;54.386;18.394;2023-05-31T02:35:41;7.70;;;4.30;;
24439;SDS011;12618;54.386;18.394;2023-05-31T02:38:15;8.30;;;5.00;;
24439;SDS011;12618;54.386;18.394;2023-05-31T02:40:47;8.00;;;5.00;;
24439;SDS011;12618;54.386;18.394;2023-05-31T02:43:19;8.00;;;4.30;;
24439;SDS011;12618;54.386;18.394;2023-05-31T02:45:51;8.00;;;5.00;;
24439;SDS011;12618;54.386;18.394;2023-05-31T02:48:23;9.00;;;5.00;;
24439;SDS011;12618;54.386;18.394;2023-05-31T02:50:55;9.20;;;4.90;;
24439;SDS011;12618;54.386;18.394;2023-05-31T02:53:27;7.00;;;4.60;;
24439;SDS011;12618;54.386;18.394;2023-05-31T02:55:59;8.40;;;5.00;;
24439;SDS011;12618;54.386;18.394;2023-05-31T02:58:31;8.30;;;4.70;;
24439;SDS011;12618;54.386;18.394;2023-05-31T03:01:02;8.20;;;5.20;;
24439;SDS011;12618;54.386;18.394;2023-05-31T03:03:34;8.00;;;5.50;;
24439;SDS011;12618;54.386;18.394;2023-05-31T03:06:06;9.40;;;5.20;;
24439;SDS011;12618;54.386;18.394;2023-05-31T03:08:38;13.30;;;5.10;;
24439;SDS011;12618;54.386;18.394;2023-05-31T03:11:10;10.00;;;4.90;;
24439;SDS011;12618;54.386;18.394;2023-05-31T03:13:41;10.40;;;5.00;;
24439;SDS011;12618;54.386;18.394;2023-05-31T03:16:16;7.60;;;4.90;;
24439;SDS011;12618;54.386;18.394;2023-05-31T03:18:48;10.10;;;5.00;;
24439;SDS011;12618;54.386;18.394;2023-05-31T03:21:20;10.90;;;5.10;;
24439;SDS011;12618;54.386;18.394;2023-05-31T03:23:51;8.70;;;4.70;;
24439;SDS011;12618;54.386;18.394;2023-05-31T03:26:26;8.20;;;4.70;;
24439;SDS011;12618;54.386;18.394;2023-05-31T03:28:58;7.60;;;4.90;;
24439;SDS011;12618;54.386;18.394;2023-05-31T03:31:29;7.30;;;4.90;;
24439;SDS011;12618;54.386;18.394;2023-05-31T03:34:04;7.70;;;4.80;;
24439;SDS011;12618;54.386;18.394;2023-05-31T03:36:35;9.90;;;5.10;;
24439;SDS011;12618;54.386;18.394;2023-05-31T03:39:08;10.10;;;5.10;;
24439;SDS011;12618;54.386;18.394;2023-05-31T03:41:42;9.90;;;4.70;;
24439;SDS011;12618;54.386;18.394;2023-05-31T03:44:14;8.80;;;4.70;;
24439;SDS011;12618;54.386;18.394;2023-05-31T03:46:45;9.80;;;4.80;;
24439;SDS011;12618;54.386;18.394;2023-05-31T03:49:18;9.20;;;4.70;;
24439;SDS011;12618;54.386;18.394;2023-05-31T03:51:50;9.90;;;4.80;;
24439;SDS011;12618;54.386;18.394;2023-05-31T03:54:22;8.90;;;5.00;;
24439;SDS011;12618;54.386;18.394;2023-05-31T03:56:53;8.90;;;4.60;;
24439;SDS011;12618;54.386;18.394;2023-05-31T03:59:25;11.30;;;4.40;;
24439;SDS011;12618;54.386;18.394;2023-05-31T04:01:57;7.40;;;4.40;;
24439;SDS011;12618;54.386;18.394;2023-05-31T04:04:29;7.70;;;4.30;;
24439;SDS011;12618;54.386;18.394;2023-05-31T04:07:01;7.10;;;4.00;;
24439;SDS011;12618;54.386;18.394;2023-05-31T04:09:32;7.50;;;4.10;;
24439;SDS011;12618;54.386;18.394;2023-05-31T04:12:04;5.90;;;3.70;;
24439;SDS011;12618;54.386;18.394;2023-05-31T04:14:37;8.20;;;4.20;;
24439;SDS011;12618;54.386;18.394;2023-05-31T04:17:09;10.20;;;4.30;;
24439;SDS011;12618;54.386;18.394;2023-05-31T04:19:40;7.60;;;4.10;;
24439;SDS011;12618;54.386;18.394;2023-05-31T04:22:12;9.40;;;4.50;;
24439;SDS011;12618;54.386;18.394;2023-05-31T04:24:45;7.30;;;4.50;;
24439;SDS011;12618;54.386;18.394;2023-05-31T04:27:16;8.20;;;4.50;;
24439;SDS011;12618;54.386;18.394;2023-05-31T04:29:49;9.10;;;3.90;;
24439;SDS011;12618;54.386;18.394;2023-05-31T04:32:22;10.40;;;4.20;;
24439;SDS011;12618;54.386;18.394;2023-05-31T04:34:59;9.60;;;4.40;;
24439;SDS011;12618;54.386;18.394;2023-05-31T04:37:34;7.70;;;4.10;;
24439;SDS011;12618;54.386;18.394;2023-05-31T04:42:41;14.80;;;4.00;;
24439;SDS011;12618;54.386;18.394;2023-05-31T04:45:13;9.10;;;4.40;;
24439;SDS011;12618;54.386;18.394;2023-05-31T04:47:46;9.50;;;4.10;;
24439;SDS011;12618;54.386;18.394;2023-05-31T04:50:21;8.50;;;4.40;;
24439;SDS011;12618;54.386;18.394;2023-05-31T04:52:52;9.30;;;4.60;;
24439;SDS011;12618;54.386;18.394;2023-05-31T04:55:24;9.70;;;4.20;;
24439;SDS011;12618;54.386;18.394;2023-05-31T04:57:57;10.00;;;4.80;;
24439;SDS011;12618;54.386;18.394;2023-05-31T05:00:29;7.50;;;3.70;;
24439;SDS011;12618;54.386;18.394;2023-05-31T05:03:00;11.10;;;3.80;;
24439;SDS011;12618;54.386;18.394;2023-05-31T05:05:33;9.30;;;3.60;;
24439;SDS011;12618;54.386;18.394;2023-05-31T05:08:04;7.90;;;3.50;;
24439;SDS011;12618;54.386;18.394;2023-05-31T05:10:36;6.40;;;3.90;;
24439;SDS011;12618;54.386;18.394;2023-05-31T05:13:10;7.20;;;3.40;;
24439;SDS011;12618;54.386;18.394;2023-05-31T05:18:13;8.60;;;3.40;;
24439;SDS011;12618;54.386;18.394;2023-05-31T05:20:45;10.40;;;3.70;;
24439;SDS011;12618;54.386;18.394;2023-05-31T05:23:17;14.20;;;4.20;;
24439;SDS011;12618;54.386;18.394;2023-05-31T05:25:48;10.40;;;3.80;;
24439;SDS011;12618;54.386;18.394;2023-05-31T05:28:20;13.50;;;3.90;;
24439;SDS011;12618;54.386;18.394;2023-05-31T05:30:53;10.40;;;3.40;;
24439;SDS011;12618;54.386;18.394;2023-05-31T05:33:25;9.70;;;3.20;;
24439;SDS011;12618;54.386;18.394;2023-05-31T05:35:59;9.70;;;2.90;;
24439;SDS011;12618;54.386;18.394;2023-05-31T05:38:31;12.60;;;3.10;;
24439;SDS011;12618;54.386;18.394;2023-05-31T05:41:03;9.00;;;2.80;;
24439;SDS011;12618;54.386;18.394;2023-05-31T05:43:34;5.30;;;2.10;;
24439;SDS011;12618;54.386;18.394;2023-05-31T05:46:06;20.50;;;2.80;;
24439;SDS011;12618;54.386;18.394;2023-05-31T05:48:38;9.30;;;2.00;;
24439;SDS011;12618;54.386;18.394;2023-05-31T05:51:10;8.40;;;1.80;;
24439;SDS011;12618;54.386;18.394;2023-05-31T05:53:41;5.50;;;1.80;;
24439;SDS011;12618;54.386;18.394;2023-05-31T05:56:13;8.40;;;1.60;;
24439;SDS011;12618;54.386;18.394;2023-05-31T05:58:50;5.70;;;1.40;;
24439;SDS011;12618;54.386;18.394;2023-05-31T06:01:21;4.70;;;1.90;;
24439;SDS011;12618;54.386;18.394;2023-05-31T06:03:55;5.00;;;1.30;;
24439;SDS011;12618;54.386;18.394;2023-05-31T06:06:28;7.40;;;1.40;;
24439;SDS011;12618;54.386;18.394;2023-05-31T06:09:00;5.00;;;1.30;;
24439;SDS011;12618;54.386;18.394;2023-05-31T06:11:31;3.70;;;1.30;;
24439;SDS011;12618;54.386;18.394;2023-05-31T06:14:06;3.00;;;1.00;;
24439;SDS011;12618;54.386;18.394;2023-05-31T06:16:37;3.20;;;1.20;;
24439;SDS011;12618;54.386;18.394;2023-05-31T06:19:09;4.20;;;1.30;;
24439;SDS011;12618;54.386;18.394;2023-05-31T06:21:41;8.40;;;1.40;;
24439;SDS011;12618;54.386;18.394;2023-05-31T06:24:13;3.40;;;1.30;;
24439;SDS011;12618;54.386;18.394;2023-05-31T06:26:44;10.50;;;1.40;;
24439;SDS011;12618;54.386;18.394;2023-05-31T06:29:16;3.90;;;1.30;;
24439;SDS011;12618;54.386;18.394;2023-05-31T06:31:48;4.30;;;1.30;;
24439;SDS011;12618;54.386;18.394;2023-05-31T06:34:20;3.70;;;1.30;;
24439;SDS011;12618;54.386;18.394;2023-05-31T06:36:52;5.80;;;1.40;;
24439;SDS011;12618;54.386;18.394;2023-05-31T06:39:23;6.20;;;1.60;;
24439;SDS011;12618;54.386;18.394;2023-05-31T06:41:55;5.40;;;1.30;;
24439;SDS011;12618;54.386;18.394;2023-05-31T06:44:30;4.10;;;1.20;;
24439;SDS011;12618;54.386;18.394;2023-05-31T06:47:06;3.40;;;1.20;;
24439;SDS011;12618;54.386;18.394;2023-05-31T06:49:38;2.30;;;1.30;;
24439;SDS011;12618;54.386;18.394;2023-05-31T06:52:10;5.20;;;1.50;;
24439;SDS011;12618;54.386;18.394;2023-05-31T06:54:44;17.60;;;2.00;;
24439;SDS011;12618;54.386;18.394;2023-05-31T06:57:16;8.50;;;1.20;;
24439;SDS011;12618;54.386;18.394;2023-05-31T06:59:47;6.30;;;1.40;;
24439;SDS011;12618;54.386;18.394;2023-05-31T07:02:19;5.80;;;1.40;;
24439;SDS011;12618;54.386;18.394;2023-05-31T07:04:51;3.70;;;1.20;;
24439;SDS011;12618;54.386;18.394;2023-05-31T07:07:23;3.30;;;1.20;;
24439;SDS011;12618;54.386;18.394;2023-05-31T07:09:54;2.20;;;1.10;;
24439;SDS011;12618;54.386;18.394;2023-05-31T07:12:26;6.10;;;1.50;;
24439;SDS011;12618;54.386;18.394;2023-05-31T07:14:58;2.80;;;1.40;;
24439;SDS011;12618;54.386;18.394;2023-05-31T07:17:29;1.90;;;1.20;;
24439;SDS011;12618;54.386;18.394;2023-05-31T07:20:01;4.30;;;1.10;;
24439;SDS011;12618;54.386;18.394;2023-05-31T07:22:33;5.10;;;1.30;;
24439;SDS011;12618;54.386;18.394;2023-05-31T07:25:05;4.60;;;1.10;;
24439;SDS011;12618;54.386;18.394;2023-05-31T07:27:37;6.20;;;1.20;;
24439;SDS011;12618;54.386;18.394;2023-05-31T07:30:09;4.20;;;1.10;;
24439;SDS011;12618;54.386;18.394;2023-05-31T07:32:41;3.70;;;1.10;;
24439;SDS011;12618;54.386;18.394;2023-05-31T07:35:13;2.50;;;0.90;;
24439;SDS011;12618;54.386;18.394;2023-05-31T07:37:44;3.20;;;1.10;;
24439;SDS011;12618;54.386;18.394;2023-05-31T07:40:16;5.10;;;1.10;;
24439;SDS011;12618;54.386;18.394;2023-05-31T07:42:48;6.20;;;1.30;;
24439;SDS011;12618;54.386;18.394;2023-05-31T07:45:19;13.90;;;1.40;;
24439;SDS011;12618;54.386;18.394;2023-05-31T07:47:51;2.80;;;1.00;;
24439;SDS011;12618;54.386;18.394;2023-05-31T07:50:24;6.70;;;1.30;;
24439;SDS011;12618;54.386;18.394;2023-05-31T07:52:55;3.80;;;1.00;;
24439;SDS011;12618;54.386;18.394;2023-05-31T07:55:27;3.50;;;1.20;;
24439;SDS011;12618;54.386;18.394;2023-05-31T07:57:59;6.60;;;1.00;;
24439;SDS011;12618;54.386;18.394;2023-05-31T08:00:30;4.00;;;1.00;;
24439;SDS011;12618;54.386;18.394;2023-05-31T08:03:05;4.90;;;1.20;;
24439;SDS011;12618;54.386;18.394;2023-05-31T08:05:40;8.30;;;1.30;;
24439;SDS011;12618;54.386;18.394;2023-05-31T08:08:12;7.60;;;1.60;;
24439;SDS011;12618;54.386;18.394;2023-05-31T08:10:44;6.30;;;1.40;;
24439;SDS011;12618;54.386;18.394;2023-05-31T08:13:16;7.40;;;1.30;;
24439;SDS011;12618;54.386;18.394;2023-05-31T08:15:47;4.90;;;1.20;;
24439;SDS011;12618;54.386;18.394;2023-05-31T08:18:19;6.20;;;1.40;;
24439;SDS011;12618;54.386;18.394;2023-05-31T08:20:51;4.20;;;1.10;;
24439;SDS011;12618;54.386;18.394;2023-05-31T08:23:22;3.50;;;1.10;;
24439;SDS011;12618;54.386;18.394;2023-05-31T08:25:54;4.10;;;1.20;;
24439;SDS011;12618;54.386;18.394;2023-05-31T08:28:27;3.50;;;1.20;;
24439;SDS011;12618;54.386;18.394;2023-05-31T08:31:01;4.60;;;1.30;;
24439;SDS011;12618;54.386;18.394;2023-05-31T08:33:33;4.50;;;1.10;;
24439;SDS011;12618;54.386;18.394;2023-05-31T08:36:06;6.40;;;1.20;;
24439;SDS011;12618;54.386;18.394;2023-05-31T08:38:38;3.70;;;1.20;;
24439;SDS011;12618;54.386;18.394;2023-05-31T08:41:09;2.20;;;1.20;;
24439;SDS011;12618;54.386;18.394;2023-05-31T08:43:41;9.50;;;1.50;;
24439;SDS011;12618;54.386;18.394;2023-05-31T08:46:14;4.20;;;1.10;;
24439;SDS011;12618;54.386;18.394;2023-05-31T08:51:25;5.90;;;1.40;;
24439;SDS011;12618;54.386;18.394;2023-05-31T08:53:58;5.60;;;1.10;;
24439;SDS011;12618;54.386;18.394;2023-05-31T08:56:30;5.30;;;1.10;;
24439;SDS011;12618;54.386;18.394;2023-05-31T08:59:02;4.10;;;1.10;;
24439;SDS011;12618;54.386;18.394;2023-05-31T09:01:34;4.00;;;1.20;;
24439;SDS011;12618;54.386;18.394;2023-05-31T09:04:08;2.50;;;1.30;;
24439;SDS011;12618;54.386;18.394;2023-05-31T09:06:40;4.70;;;1.40;;
24439;SDS011;12618;54.386;18.394;2023-05-31T09:09:14;3.00;;;1.00;;
24439;SDS011;12618;54.386;18.394;2023-05-31T09:11:47;3.20;;;1.30;;
24439;SDS011;12618;54.386;18.394;2023-05-31T09:14:19;3.80;;;1.20;;
24439;SDS011;12618;54.386;18.394;2023-05-31T09:16:51;6.50;;;1.10;;
24439;SDS011;12618;54.386;18.394;2023-05-31T09:19:22;6.50;;;1.30;;
24439;SDS011;12618;54.386;18.394;2023-05-31T09:21:54;3.10;;;1.50;;
24439;SDS011;12618;54.386;18.394;2023-05-31T09:24:26;2.80;;;1.10;;
24439;SDS011;12618;54.386;18.394;2023-05-31T09:26:58;6.10;;;1.30;;
24439;SDS011;12618;54.386;18.394;2023-05-31T09:29:32;5.90;;;1.10;;
24439;SDS011;12618;54.386;18.394;2023-05-31T09:32:07;3.60;;;1.20;;
24439;SDS011;12618;54.386;18.394;2023-05-31T09:34:41;11.90;;;2.50;;
24439;SDS011;12618;54.386;18.394;2023-05-31T09:37:22;3.50;;;1.20;;
24439;SDS011;12618;54.386;18.394;2023-05-31T09:39:55;3.60;;;1.20;;
24439;SDS011;12618;54.386;18.394;2023-05-31T09:42:27;6.90;;;1.20;;
24439;SDS011;12618;54.386;18.394;2023-05-31T09:45:00;2.20;;;1.10;;
24439;SDS011;12618;54.386;18.394;2023-05-31T09:47:32;7.30;;;1.10;;
24439;SDS011;12618;54.386;18.394;2023-05-31T09:50:11;3.00;;;1.00;;
24439;SDS011;12618;54.386;18.394;2023-05-31T09:52:47;3.50;;;1.10;;
24439;SDS011;12618;54.386;18.394;2023-05-31T09:55:20;5.30;;;1.30;;
24439;SDS011;12618;54.386;18.394;2023-05-31T09:57:52;6.20;;;1.50;;
24439;SDS011;12618;54.386;18.394;2023-05-31T10:00:25;5.30;;;1.30;;
24439;SDS011;12618;54.386;18.394;2023-05-31T10:02:56;4.70;;;1.10;;
24439;SDS011;12618;54.386;18.394;2023-05-31T10:05:28;4.30;;;1.10;;
24439;SDS011;12618;54.386;18.394;2023-05-31T10:08:00;3.50;;;1.20;;
24439;SDS011;12618;54.386;18.394;2023-05-31T10:10:32;6.30;;;1.10;;
24439;SDS011;12618;54.386;18.394;2023-05-31T10:13:04;2.60;;;1.10;;
24439;SDS011;12618;54.386;18.394;2023-05-31T10:15:41;3.80;;;1.00;;
24439;SDS011;12618;54.386;18.394;2023-05-31T10:18:17;2.90;;;1.10;;
24439;SDS011;12618;54.386;18.394;2023-05-31T10:20:53;3.10;;;1.10;;
24439;SDS011;12618;54.386;18.394;2023-05-31T10:23:32;44.60;;;3.40;;
24439;SDS011;12618;54.386;18.394;2023-05-31T10:26:13;6.60;;;1.30;;
24439;SDS011;12618;54.386;18.394;2023-05-31T10:28:58;4.00;;;1.40;;
24439;SDS011;12618;54.386;18.394;2023-05-31T10:31:41;3.90;;;1.20;;
24439;SDS011;12618;54.386;18.394;2023-05-31T10:34:25;4.00;;;1.20;;
24439;SDS011;12618;54.386;18.394;2023-05-31T10:36:57;1.60;;;1.20;;
24439;SDS011;12618;54.386;18.394;2023-05-31T10:39:39;4.90;;;1.20;;
24439;SDS011;12618;54.386;18.394;2023-05-31T10:48:51;4.50;;;1.30;;
24439;SDS011;12618;54.386;18.394;2023-05-31T10:51:37;3.20;;;1.10;;
24439;SDS011;12618;54.386;18.394;2023-05-31T10:54:20;4.80;;;1.50;;
24439;SDS011;12618;54.386;18.394;2023-05-31T10:56:53;2.90;;;1.20;;
24439;SDS011;12618;54.386;18.394;2023-05-31T10:59:25;3.60;;;1.30;;
24439;SDS011;12618;54.386;18.394;2023-05-31T11:01:58;8.70;;;1.30;;
24439;SDS011;12618;54.386;18.394;2023-05-31T11:04:31;7.80;;;1.40;;
24439;SDS011;12618;54.386;18.394;2023-05-31T11:07:13;4.50;;;1.40;;
24439;SDS011;12618;54.386;18.394;2023-05-31T11:09:58;3.20;;;1.30;;
24439;SDS011;12618;54.386;18.394;2023-05-31T11:12:32;2.50;;;1.20;;
24439;SDS011;12618;54.386;18.394;2023-05-31T11:15:11;6.70;;;1.20;;
24439;SDS011;12618;54.386;18.394;2023-05-31T11:17:54;5.60;;;1.40;;
24439;SDS011;12618;54.386;18.394;2023-05-31T11:20:26;3.70;;;1.40;;
24439;SDS011;12618;54.386;18.394;2023-05-31T11:26:14;7.90;;;1.80;;
24439;SDS011;12618;54.386;18.394;2023-05-31T11:29:00;12.70;;;1.90;;
24439;SDS011;12618;54.386;18.394;2023-05-31T11:34:31;4.00;;;1.20;;
24439;SDS011;12618;54.386;18.394;2023-05-31T11:37:05;14.30;;;2.10;;
24439;SDS011;12618;54.386;18.394;2023-05-31T11:39:37;4.20;;;1.30;;
24439;SDS011;12618;54.386;18.394;2023-05-31T11:42:14;3.80;;;1.20;;
24439;SDS011;12618;54.386;18.394;2023-05-31T11:44:46;3.60;;;1.40;;
24439;SDS011;12618;54.386;18.394;2023-05-31T11:47:24;4.50;;;1.10;;
24439;SDS011;12618;54.386;18.394;2023-05-31T11:49:57;4.70;;;1.40;;
24439;SDS011;12618;54.386;18.394;2023-05-31T11:52:29;6.20;;;1.10;;
24439;SDS011;12618;54.386;18.394;2023-05-31T11:55:04;4.40;;;1.60;;
24439;SDS011;12618;54.386;18.394;2023-05-31T11:57:46;5.70;;;1.40;;
24439;SDS011;12618;54.386;18.394;2023-05-31T12:00:23;8.70;;;1.40;;
24439;SDS011;12618;54.386;18.394;2023-05-31T12:02:55;3.90;;;1.20;;
24439;SDS011;12618;54.386;18.394;2023-05-31T12:05:34;9.50;;;1.40;;
24439;SDS011;12618;54.386;18.394;2023-05-31T12:08:08;6.40;;;1.60;;
24439;SDS011;12618;54.386;18.394;2023-05-31T12:10:46;6.90;;;1.30;;
24439;SDS011;12618;54.386;18.394;2023-05-31T12:13:18;4.50;;;1.30;;
24439;SDS011;12618;54.386;18.394;2023-05-31T12:15:50;2.70;;;1.30;;
24439;SDS011;12618;54.386;18.394;2023-05-31T12:18:28;5.80;;;1.30;;
24439;SDS011;12618;54.386;18.394;2023-05-31T12:21:08;4.10;;;1.50;;
24439;SDS011;12618;54.386;18.394;2023-05-31T12:23:56;7.80;;;1.40;;
24439;SDS011;12618;54.386;18.394;2023-05-31T12:26:31;2.90;;;1.30;;
24439;SDS011;12618;54.386;18.394;2023-05-31T12:29:07;4.60;;;1.40;;
24439;SDS011;12618;54.386;18.394;2023-05-31T12:31:39;4.00;;;1.40;;
24439;SDS011;12618;54.386;18.394;2023-05-31T12:34:12;7.10;;;1.20;;
24439;SDS011;12618;54.386;18.394;2023-05-31T12:36:48;6.30;;;1.20;;
24439;SDS011;12618;54.386;18.394;2023-05-31T12:39:21;4.70;;;1.20;;
24439;SDS011;12618;54.386;18.394;2023-05-31T12:41:56;4.30;;;1.30;;
24439;SDS011;12618;54.386;18.394;2023-05-31T12:44:29;7.80;;;1.50;;
24439;SDS011;12618;54.386;18.394;2023-05-31T12:47:02;8.80;;;1.50;;
24439;SDS011;12618;54.386;18.394;2023-05-31T12:49:35;6.40;;;1.30;;
24439;SDS011;12618;54.386;18.394;2023-05-31T12:52:09;7.20;;;1.80;;
24439;SDS011;12618;54.386;18.394;2023-05-31T12:54:41;2.80;;;1.20;;
24439;SDS011;12618;54.386;18.394;2023-05-31T12:57:14;6.80;;;1.70;;
24439;SDS011;12618;54.386;18.394;2023-05-31T12:59:46;5.30;;;1.30;;
24439;SDS011;12618;54.386;18.394;2023-05-31T13:02:28;4.70;;;1.20;;
24439;SDS011;12618;54.386;18.394;2023-05-31T13:05:00;8.30;;;1.60;;
24439;SDS011;12618;54.386;18.394;2023-05-31T13:07:32;7.50;;;1.50;;
24439;SDS011;12618;54.386;18.394;2023-05-31T13:10:05;19.40;;;1.90;;
24439;SDS011;12618;54.386;18.394;2023-05-31T13:12:43;6.00;;;1.10;;
24439;SDS011;12618;54.386;18.394;2023-05-31T13:15:14;7.70;;;1.40;;
24439;SDS011;12618;54.386;18.394;2023-05-31T13:17:46;5.20;;;1.30;;
24439;SDS011;12618;54.386;18.394;2023-05-31T13:20:18;3.70;;;1.40;;
24439;SDS011;12618;54.386;18.394;2023-05-31T13:22:50;4.50;;;1.40;;
24439;SDS011;12618;54.386;18.394;2023-05-31T13:25:21;4.90;;;1.50;;
24439;SDS011;12618;54.386;18.394;2023-05-31T13:27:53;4.20;;;1.10;;
24439;SDS011;12618;54.386;18.394;2023-05-31T13:30:28;2.50;;;1.50;;
24439;SDS011;12618;54.386;18.394;2023-05-31T13:32:59;2.70;;;1.30;;
24439;SDS011;12618;54.386;18.394;2023-05-31T13:35:31;4.90;;;1.50;;
24439;SDS011;12618;54.386;18.394;2023-05-31T13:38:03;14.50;;;1.80;;
24439;SDS011;12618;54.386;18.394;2023-05-31T13:40:34;2.80;;;1.10;;
24439;SDS011;12618;54.386;18.394;2023-05-31T13:43:08;5.20;;;1.30;;
24439;SDS011;12618;54.386;18.394;2023-05-31T13:45:40;5.20;;;1.20;;
24439;SDS011;12618;54.386;18.394;2023-05-31T13:48:12;5.30;;;1.20;;
24439;SDS011;12618;54.386;18.394;2023-05-31T13:50:47;10.30;;;1.40;;
24439;SDS011;12618;54.386;18.394;2023-05-31T13:53:18;6.60;;;1.20;;
24439;SDS011;12618;54.386;18.394;2023-05-31T13:55:50;8.00;;;1.20;;
24439;SDS011;12618;54.386;18.394;2023-05-31T13:58:33;5.90;;;1.60;;
24439;SDS011;12618;54.386;18.394;2023-05-31T14:01:05;6.30;;;1.50;;
24439;SDS011;12618;54.386;18.394;2023-05-31T14:03:40;4.30;;;1.30;;
24439;SDS011;12618;54.386;18.394;2023-05-31T14:06:12;5.60;;;1.40;;
24439;SDS011;12618;54.386;18.394;2023-05-31T14:08:44;3.60;;;1.40;;
24439;SDS011;12618;54.386;18.394;2023-05-31T14:11:17;5.70;;;1.40;;
24439;SDS011;12618;54.386;18.394;2023-05-31T14:13:49;19.20;;;1.60;;
24439;SDS011;12618;54.386;18.394;2023-05-31T14:16:20;8.10;;;2.30;;
24439;SDS011;12618;54.386;18.394;2023-05-31T14:18:56;5.80;;;1.30;;
24439;SDS011;12618;54.386;18.394;2023-05-31T14:21:27;5.20;;;1.40;;
24439;SDS011;12618;54.386;18.394;2023-05-31T14:23:59;7.00;;;1.30;;
24439;SDS011;12618;54.386;18.394;2023-05-31T14:26:31;21.80;;;2.10;;
24439;SDS011;12618;54.386;18.394;2023-05-31T14:29:03;10.20;;;1.70;;
24439;SDS011;12618;54.386;18.394;2023-05-31T14:31:35;4.80;;;1.40;;
24439;SDS011;12618;54.386;18.394;2023-05-31T14:34:09;3.60;;;1.40;;
24439;SDS011;12618;54.386;18.394;2023-05-31T14:36:41;3.50;;;1.30;;
24439;SDS011;12618;54.386;18.394;2023-05-31T14:39:14;5.00;;;1.50;;
24439;SDS011;12618;54.386;18.394;2023-05-31T14:41:46;6.60;;;1.30;;
24439;SDS011;12618;54.386;18.394;2023-05-31T14:44:18;5.50;;;1.30;;
24439;SDS011;12618;54.386;18.394;2023-05-31T14:46:50;10.90;;;2.30;;
24439;SDS011;12618;54.386;18.394;2023-05-31T14:49:26;6.00;;;1.30;;
24439;SDS011;12618;54.386;18.394;2023-05-31T14:51:57;9.90;;;1.50;;
24439;SDS011;12618;54.386;18.394;2023-05-31T14:54:29;7.40;;;1.40;;
24439;SDS011;12618;54.386;18.394;2023-05-31T14:57:01;3.70;;;1.40;;
24439;SDS011;12618;54.386;18.394;2023-05-31T14:59:33;7.50;;;1.70;;
24439;SDS011;12618;54.386;18.394;2023-05-31T15:02:05;4.80;;;1.50;;
24439;SDS011;12618;54.386;18.394;2023-05-31T15:04:38;6.20;;;1.40;;
24439;SDS011;12618;54.386;18.394;2023-05-31T15:07:11;6.30;;;1.30;;
24439;SDS011;12618;54.386;18.394;2023-05-31T15:09:43;6.20;;;1.40;;
24439;SDS011;12618;54.386;18.394;2023-05-31T15:12:14;8.60;;;1.60;;
24439;SDS011;12618;54.386;18.394;2023-05-31T15:14:46;6.80;;;1.50;;
24439;SDS011;12618;54.386;18.394;2023-05-31T15:17:19;8.00;;;1.60;;
24439;SDS011;12618;54.386;18.394;2023-05-31T15:19:51;5.10;;;1.70;;
24439;SDS011;12618;54.386;18.394;2023-05-31T15:22:23;5.90;;;1.50;;
24439;SDS011;12618;54.386;18.394;2023-05-31T15:24:55;5.60;;;1.40;;
24439;SDS011;12618;54.386;18.394;2023-05-31T15:27:27;6.80;;;1.40;;
24439;SDS011;12618;54.386;18.394;2023-05-31T15:29:58;6.00;;;1.50;;
24439;SDS011;12618;54.386;18.394;2023-05-31T15:32:30;4.50;;;1.50;;